Terminal Aerodrome Forecast
Issued by NWS Louisville, KY

Home | Current Version | Previous Version | Text Only | Print | Product List | Glossary On
Versions: 1 2 3 4 5 6 7 8 9 10 11 12 13
000
FTUS43 KLMK 281100
TAFLEX
TAF
KLEX 281136Z 2812/0112 08010KT P6SM BKN080
     FM010100 10005KT P6SM BKN020
     FM010900 11005KT 6SM BR VCSH BKN020=

USA.gov is the U.S. government's official web portal to all federal, state and local government web resources and services.